createdAt,value
2017-10-11T00:00:38.010Z,0
2017-10-11T00:01:48.095Z,0
2017-10-11T00:02:58.504Z,0
2017-10-11T00:04:08.587Z,0
2017-10-11T00:05:18.710Z,0
2017-10-11T00:06:28.798Z,0
2017-10-11T00:13:29.862Z,0
2017-10-11T00:14:40.296Z,0
2017-10-11T00:15:50.373Z,0
2017-10-11T00:17:00.436Z,0
2017-10-11T00:18:10.829Z,0
2017-10-11T00:19:21.480Z,0
2017-10-11T00:20:31.884Z,0
2017-10-11T00:21:42.281Z,0
2017-10-11T00:22:52.355Z,0
2017-10-11T00:24:02.754Z,0
2017-10-11T00:25:13.148Z,0
2017-10-11T00:26:23.569Z,0
2017-10-11T00:27:33.977Z,0
2017-10-11T00:28:44.369Z,0
2017-10-11T00:29:54.164Z,0
2017-10-11T00:31:04.555Z,0
2017-10-11T00:32:14.295Z,0
2017-10-11T00:33:24.369Z,0
2017-10-11T00:34:34.440Z,0
2017-10-11T00:35:44.893Z,0
2017-10-11T00:36:55.295Z,0
2017-10-11T00:38:05.687Z,0
2017-10-11T00:39:16.086Z,0
2017-10-11T00:40:26.485Z,0
2017-10-11T00:41:36.929Z,0
2017-10-11T00:42:47.000Z,0
2017-10-11T00:43:57.406Z,0
2017-10-11T00:45:07.496Z,0
2017-10-11T00:46:17.553Z,0
2017-10-11T00:47:28.020Z,0
2017-10-11T00:48:38.426Z,0
2017-10-11T00:49:48.492Z,0
2017-10-11T00:50:58.895Z,0
2017-10-11T00:52:09.289Z,0
2017-10-11T00:53:19.418Z,0
2017-10-11T00:54:29.832Z,0
2017-10-11T00:55:40.268Z,0
2017-10-11T00:56:50.685Z,0
2017-10-11T00:58:01.102Z,0
2017-10-11T00:59:11.178Z,0
2017-10-11T01:00:21.572Z,0
2017-10-11T01:01:31.642Z,0
2017-10-11T01:02:42.061Z,0
2017-10-11T01:03:52.135Z,0
2017-10-11T01:05:02.268Z,0
2017-10-11T01:06:12.675Z,0
2017-10-11T01:07:23.067Z,0
2017-10-11T01:08:33.464Z,0
2017-10-11T01:09:43.865Z,0
2017-10-11T01:10:54.305Z,0
2017-10-11T01:12:04.054Z,0
2017-10-11T01:13:14.457Z,0
2017-10-11T01:14:24.850Z,0
2017-10-11T01:15:34.589Z,0
2017-10-11T01:16:44.705Z,0
2017-10-11T01:17:55.129Z,0
2017-10-11T01:19:05.540Z,0
2017-10-11T01:20:15.595Z,0
2017-10-11T01:21:26.010Z,0
2017-10-11T01:22:36.417Z,0
2017-10-11T01:23:46.851Z,0
2017-10-11T01:24:56.919Z,0
2017-10-11T01:26:07.329Z,0
2017-10-11T01:27:17.722Z,0
2017-10-11T01:28:27.817Z,0
2017-10-11T01:29:38.248Z,0
2017-10-11T01:30:48.337Z,0
2017-10-11T01:31:59.801Z,0
2017-10-11T01:33:10.199Z,0
2017-10-11T01:34:20.646Z,0
2017-10-11T01:35:31.047Z,0
2017-10-11T01:36:41.132Z,0
2017-10-11T01:37:51.536Z,0
2017-10-11T01:39:01.947Z,0
2017-10-11T01:40:12.221Z,0
2017-10-11T01:41:22.634Z,0
2017-10-11T01:42:33.029Z,0
2017-10-11T01:43:43.437Z,0
2017-10-11T01:44:53.836Z,0
2017-10-11T01:46:03.633Z,0
2017-10-11T01:47:14.033Z,0
2017-10-11T01:48:24.473Z,0
2017-10-11T01:49:34.542Z,0
2017-10-11T01:50:44.939Z,0
2017-10-11T01:51:55.054Z,0
2017-10-11T01:53:05.477Z,0
2017-10-11T01:54:15.553Z,0
2017-10-11T01:55:25.637Z,0
2017-10-11T01:56:36.090Z,0
2017-10-11T01:57:46.536Z,0
2017-10-11T01:58:56.663Z,0
2017-10-11T02:00:06.740Z,0
2017-10-11T02:01:16.827Z,0
2017-10-11T02:02:27.218Z,0
2017-10-11T02:03:37.310Z,0
2017-10-11T02:04:47.706Z,0
2017-10-11T02:05:58.092Z,0
2017-10-11T02:07:08.169Z,0
2017-10-11T02:08:18.562Z,0
2017-10-11T02:09:28.954Z,0
2017-10-11T02:10:39.370Z,0
2017-10-11T02:11:49.797Z,0
2017-10-11T02:12:59.866Z,0
2017-10-11T02:14:10.280Z,0
2017-10-11T02:15:20.354Z,0
2017-10-11T02:16:30.768Z,0
2017-10-11T02:17:41.176Z,0
2017-10-11T02:18:51.578Z,0
2017-10-11T02:20:01.978Z,0
2017-10-11T02:21:12.387Z,0
2017-10-11T02:22:22.811Z,0
2017-10-11T02:23:33.215Z,0
2017-10-11T02:24:43.607Z,0
2017-10-11T02:25:53.675Z,0
2017-10-11T02:27:03.434Z,0
2017-10-11T02:28:13.857Z,0
2017-10-11T02:29:24.263Z,0
2017-10-11T02:30:34.670Z,0
2017-10-11T02:31:44.752Z,0
2017-10-11T02:32:54.552Z,0
2017-10-11T02:34:04.978Z,0
2017-10-11T02:35:15.051Z,0
2017-10-11T02:36:25.446Z,0
2017-10-11T02:37:35.848Z,0
2017-10-11T02:38:46.299Z,0
2017-10-11T02:39:56.711Z,0
2017-10-11T02:41:06.782Z,0
2017-10-11T02:42:16.887Z,0
2017-10-11T02:43:26.985Z,0
2017-10-11T02:44:37.422Z,0
2017-10-11T02:45:47.856Z,0
2017-10-11T02:46:58.263Z,0
2017-10-11T02:48:08.687Z,0
2017-10-11T02:49:18.765Z,0
2017-10-11T02:50:29.176Z,0
2017-10-11T02:51:39.241Z,0
2017-10-11T02:52:49.652Z,0
2017-10-11T02:54:00.039Z,0
2017-10-11T02:55:10.447Z,0
2017-10-11T02:56:20.537Z,0
2017-10-11T02:57:30.970Z,0
2017-10-11T02:58:40.714Z,0
2017-10-11T02:59:50.773Z,0
2017-10-11T03:01:01.184Z,0
2017-10-11T03:02:11.589Z,0
2017-10-11T03:34:17.556Z,0
2017-10-11T03:35:27.627Z,0
2017-10-11T03:36:38.025Z,0
2017-10-11T03:37:47.762Z,0
2017-10-11T03:38:58.156Z,0
2017-10-11T03:40:08.594Z,0
2017-10-11T03:41:18.997Z,0
2017-10-11T03:42:29.406Z,0
2017-10-11T03:43:39.795Z,0
2017-10-11T03:44:49.873Z,0
2017-10-11T03:45:59.958Z,0
2017-10-11T03:47:10.347Z,0
2017-10-11T03:48:20.074Z,0
2017-10-11T03:49:30.144Z,0
2017-10-11T03:50:40.561Z,0
2017-10-11T03:51:51.007Z,0
2017-10-11T03:53:01.434Z,0
2017-10-11T03:54:11.851Z,0
2017-10-11T03:55:22.244Z,0
2017-10-11T03:56:32.649Z,0
2017-10-11T03:57:43.114Z,0
2017-10-11T03:58:53.515Z,0
2017-10-11T04:00:03.917Z,0
2017-10-11T04:01:14.313Z,0
2017-10-11T04:02:24.740Z,0
2017-10-11T04:03:34.867Z,0
2017-10-11T04:04:45.269Z,0
2017-10-11T04:05:55.675Z,0
2017-10-11T04:07:06.076Z,0
2017-10-11T04:08:16.480Z,0
2017-10-11T04:09:26.940Z,0
2017-10-11T04:10:37.371Z,0
2017-10-11T04:11:47.447Z,0
2017-10-11T04:12:57.842Z,0
2017-10-11T04:14:08.262Z,0
2017-10-11T04:15:18.398Z,0
2017-10-11T04:16:28.804Z,0
2017-10-11T04:17:38.868Z,0
2017-10-11T04:18:48.948Z,0
2017-10-11T04:19:59.333Z,0
2017-10-11T04:21:09.813Z,0
2017-10-11T04:22:20.229Z,0
2017-10-11T04:23:29.990Z,0
2017-10-11T04:24:40.404Z,0
2017-10-11T04:25:50.488Z,0
2017-10-11T04:27:00.627Z,0
2017-10-11T04:28:11.034Z,0
2017-10-11T04:29:21.421Z,0
2017-10-11T04:30:31.861Z,0
2017-10-11T04:31:42.274Z,0
2017-10-11T04:32:52.368Z,0
2017-10-11T04:34:02.789Z,0
2017-10-11T04:35:13.209Z,0
2017-10-11T04:36:23.282Z,0
2017-10-11T04:37:33.679Z,0
2017-10-11T04:38:44.089Z,0
2017-10-11T04:39:54.482Z,0
2017-10-11T04:41:04.874Z,0
2017-10-11T04:42:14.952Z,0
2017-10-11T04:43:25.363Z,0
2017-10-11T04:44:35.762Z,0
2017-10-11T04:45:46.172Z,0
2017-10-11T04:46:56.568Z,0
2017-10-11T04:48:06.960Z,0
2017-10-11T04:49:16.705Z,0
2017-10-11T04:50:27.132Z,0
2017-10-11T04:51:37.533Z,0
2017-10-11T04:52:47.934Z,0
2017-10-11T04:53:58.328Z,0
2017-10-11T04:55:08.740Z,0
2017-10-11T04:56:19.186Z,0
2017-10-11T04:57:28.618Z,0
2017-10-11T04:58:39.032Z,0
2017-10-11T04:59:49.460Z,0
2017-10-11T05:00:59.872Z,0
2017-10-11T05:02:10.289Z,0
2017-10-11T05:03:20.681Z,0
2017-10-11T05:04:30.766Z,0
2017-10-11T05:05:40.186Z,0
2017-10-11T05:06:50.602Z,0
2017-10-11T05:08:01.014Z,0
2017-10-11T05:09:11.116Z,0
2017-10-11T05:10:21.526Z,0
2017-10-11T05:11:31.920Z,0
2017-10-11T05:12:41.992Z,0
2017-10-11T05:13:52.087Z,0
2017-10-11T05:15:02.498Z,0
2017-10-11T05:16:12.915Z,0
2017-10-11T05:17:23.002Z,0
2017-10-11T05:18:32.749Z,0
2017-10-11T05:19:43.197Z,0
2017-10-11T05:20:53.597Z,0
2017-10-11T05:22:03.694Z,5
2017-10-11T05:23:14.097Z,5
2017-10-11T05:24:24.177Z,5
2017-10-11T05:25:34.614Z,5
2017-10-11T05:26:44.686Z,5
2017-10-11T05:27:54.764Z,5
2017-10-11T05:29:04.844Z,10
2017-10-11T05:30:14.917Z,10
2017-10-11T05:31:25.368Z,10
2017-10-11T05:32:35.792Z,10
2017-10-11T05:33:46.213Z,15
2017-10-11T05:34:56.660Z,15
2017-10-11T05:36:07.071Z,20
2017-10-11T05:37:17.147Z,20
2017-10-11T05:38:27.231Z,20
2017-10-11T05:39:37.633Z,25
2017-10-11T05:40:48.048Z,25
2017-10-11T05:41:58.454Z,25
2017-10-11T05:43:08.916Z,30
2017-10-11T05:44:18.990Z,30
2017-10-11T05:45:29.386Z,30
2017-10-11T05:46:39.807Z,30
2017-10-11T05:47:49.888Z,35
2017-10-11T05:48:59.992Z,35
2017-10-11T05:50:10.413Z,35
2017-10-11T05:51:20.820Z,35
2017-10-11T05:52:31.230Z,40
2017-10-11T05:53:40.977Z,40
2017-10-11T05:54:51.129Z,40
2017-10-11T05:56:01.196Z,40
2017-10-11T05:57:10.961Z,40
2017-10-11T05:58:21.365Z,40
2017-10-11T05:59:31.794Z,40
2017-10-11T06:00:41.927Z,45
2017-10-11T06:01:52.004Z,45
2017-10-11T06:03:02.404Z,50
2017-10-11T06:04:12.470Z,50
2017-10-11T06:05:22.886Z,50
2017-10-11T06:06:33.285Z,55
2017-10-11T06:07:43.688Z,55
2017-10-11T06:08:53.756Z,55
2017-10-11T06:10:04.166Z,55
2017-10-11T06:11:14.578Z,55
2017-10-11T06:12:24.985Z,55
2017-10-11T06:13:35.396Z,55
2017-10-11T06:14:45.464Z,55
2017-10-11T06:15:55.876Z,50
2017-10-11T06:17:06.292Z,50
2017-10-11T06:18:17.039Z,55
2017-10-11T06:19:27.428Z,55
2017-10-11T06:20:37.840Z,55
2017-10-11T06:21:48.239Z,55
2017-10-11T06:22:58.027Z,55
2017-10-11T06:24:08.429Z,60
2017-10-11T06:25:18.836Z,55
2017-10-11T06:26:29.228Z,60
2017-10-11T06:27:39.308Z,55
2017-10-11T06:28:49.726Z,55
2017-10-11T06:30:00.196Z,60
2017-10-11T06:31:10.633Z,60
2017-10-11T06:32:20.713Z,65
2017-10-11T06:33:30.783Z,60
2017-10-11T06:34:41.170Z,60
2017-10-11T06:35:51.635Z,65
2017-10-11T06:37:02.036Z,80
2017-10-11T06:38:12.463Z,70
2017-10-11T06:39:22.873Z,75
2017-10-11T06:40:33.256Z,90
2017-10-11T06:41:43.666Z,75
2017-10-11T06:42:53.747Z,70
2017-10-11T06:44:04.173Z,70
2017-10-11T06:45:14.586Z,70
2017-10-11T06:46:24.672Z,70
2017-10-11T06:47:35.648Z,70
2017-10-11T06:48:45.711Z,75
2017-10-11T06:49:55.788Z,75
2017-10-11T06:51:06.209Z,85
2017-10-11T06:52:16.280Z,110
2017-10-11T06:53:26.707Z,115
2017-10-11T06:54:37.108Z,120
2017-10-11T06:55:47.177Z,120
2017-10-11T06:56:57.242Z,120
2017-10-11T06:58:07.648Z,125
2017-10-11T06:59:18.042Z,110
2017-10-11T07:00:28.456Z,115
2017-10-11T07:01:38.860Z,120
2017-10-11T07:02:49.277Z,125
2017-10-11T07:03:59.682Z,120
2017-10-11T07:05:09.809Z,120
2017-10-11T07:06:20.248Z,120
2017-10-11T07:07:30.660Z,120
2017-10-11T07:08:41.209Z,120
2017-10-11T07:09:51.608Z,120
2017-10-11T07:11:02.013Z,120
2017-10-11T07:12:12.425Z,120
2017-10-11T07:13:22.832Z,125
2017-10-11T07:14:32.905Z,125
2017-10-11T07:15:43.316Z,125
2017-10-11T07:16:53.767Z,125
2017-10-11T07:18:04.177Z,125
2017-10-11T07:19:14.260Z,125
2017-10-11T07:20:24.322Z,125
2017-10-11T07:21:34.723Z,125
2017-10-11T07:22:45.158Z,130
2017-10-11T07:23:55.549Z,130
2017-10-11T07:25:05.294Z,130
2017-10-11T07:26:15.703Z,120
2017-10-11T07:27:25.805Z,115
2017-10-11T07:28:36.204Z,115
2017-10-11T07:29:46.616Z,115
2017-10-11T07:30:57.015Z,125
2017-10-11T07:32:07.409Z,125
2017-10-11T07:33:17.200Z,125
2017-10-11T07:34:27.272Z,130
2017-10-11T07:35:37.355Z,150
2017-10-11T07:36:47.778Z,150
2017-10-11T07:37:58.181Z,135
2017-10-11T07:39:08.262Z,125
2017-10-11T07:40:18.336Z,110
2017-10-11T07:41:28.425Z,105
2017-10-11T07:42:38.836Z,120
2017-10-11T07:43:48.906Z,130
2017-10-11T07:44:59.305Z,130
2017-10-11T07:46:09.736Z,140
2017-10-11T07:47:20.159Z,140
2017-10-11T07:48:30.228Z,140
2017-10-11T07:49:40.636Z,145
2017-10-11T07:50:51.048Z,155
2017-10-11T07:52:01.503Z,165
2017-10-11T07:53:11.906Z,165
2017-10-11T07:54:22.319Z,170
2017-10-11T07:55:32.399Z,175
2017-10-11T07:56:42.817Z,170
2017-10-11T07:57:53.215Z,170
2017-10-11T07:59:03.607Z,155
2017-10-11T08:00:14.007Z,165
2017-10-11T08:01:24.446Z,170
2017-10-11T08:02:34.895Z,175
2017-10-11T08:03:45.358Z,180
2017-10-11T08:04:55.775Z,180
2017-10-11T08:06:06.200Z,170
2017-10-11T08:07:16.603Z,170
2017-10-11T08:08:27.016Z,165
2017-10-11T08:09:37.150Z,165
2017-10-11T08:10:47.556Z,175
2017-10-11T08:11:57.661Z,175
2017-10-11T08:13:08.064Z,155
2017-10-11T08:14:18.463Z,175
2017-10-11T08:15:28.917Z,170
2017-10-11T08:16:38.994Z,180
2017-10-11T08:17:49.073Z,185
2017-10-11T08:18:59.546Z,200
2017-10-11T08:20:14.463Z,205
2017-10-11T08:21:25.545Z,210
2017-10-11T08:22:35.646Z,210
2017-10-11T08:23:46.137Z,215
2017-10-11T08:24:56.220Z,220
2017-10-11T08:26:06.296Z,230
2017-10-11T08:27:16.773Z,235
2017-10-11T08:28:27.193Z,235
2017-10-11T08:29:37.610Z,225
2017-10-11T08:30:48.039Z,230
2017-10-11T08:31:58.478Z,210
2017-10-11T08:33:08.294Z,230
2017-10-11T08:34:18.724Z,230
2017-10-11T08:35:29.149Z,220
2017-10-11T08:36:39.578Z,205
2017-10-11T08:37:49.995Z,210
2017-10-11T08:39:00.455Z,235
2017-10-11T08:40:10.863Z,220
2017-10-11T08:41:20.952Z,215
2017-10-11T08:42:31.368Z,220
2017-10-11T08:43:41.816Z,245
2017-10-11T08:44:52.283Z,210
2017-10-11T08:46:02.713Z,210
2017-10-11T08:47:13.136Z,200
2017-10-11T08:48:23.221Z,195
2017-10-11T08:49:34.758Z,195
2017-10-11T08:50:45.240Z,190
2017-10-11T08:51:55.695Z,190
2017-10-11T08:53:06.111Z,185
2017-10-11T08:54:16.604Z,185
2017-10-11T08:55:27.046Z,180
2017-10-11T08:56:37.502Z,180
2017-10-11T08:57:47.938Z,180
2017-10-11T08:58:58.392Z,180
2017-10-11T09:00:08.493Z,180
2017-10-11T09:01:18.925Z,175
2017-10-11T09:02:29.387Z,175
2017-10-11T09:03:39.475Z,175
2017-10-11T09:04:49.579Z,175
2017-10-11T09:06:00.011Z,175
2017-10-11T09:07:09.771Z,180
2017-10-11T09:08:20.252Z,175
2017-10-11T09:09:30.665Z,175
2017-10-11T09:10:40.761Z,170
2017-10-11T09:11:51.196Z,165
2017-10-11T09:13:01.608Z,160
2017-10-11T09:14:12.066Z,160
2017-10-11T09:15:22.476Z,155
2017-10-11T09:16:32.573Z,150
2017-10-11T09:17:42.689Z,150
2017-10-11T09:18:53.111Z,145
2017-10-11T09:20:03.599Z,140
2017-10-11T09:21:13.989Z,140
2017-10-11T09:22:24.411Z,140
2017-10-11T09:23:34.492Z,135
2017-10-11T09:24:44.965Z,135
2017-10-11T09:25:55.065Z,130
2017-10-11T09:27:05.179Z,135
2017-10-11T09:28:15.947Z,135
2017-10-11T09:29:25.979Z,130
2017-10-11T09:30:36.358Z,130
2017-10-11T09:31:46.905Z,130
2017-10-11T09:32:57.021Z,125
2017-10-11T09:34:07.438Z,120
2017-10-11T09:35:17.884Z,120
2017-10-11T09:36:28.308Z,120
2017-10-11T09:37:38.770Z,115
2017-10-11T09:38:49.229Z,115
2017-10-11T09:39:59.649Z,115
2017-10-11T09:41:10.076Z,115
2017-10-11T09:42:20.519Z,115
2017-10-11T09:43:30.959Z,115
2017-10-11T09:44:41.045Z,125
2017-10-11T09:45:51.129Z,130
2017-10-11T09:47:01.554Z,140
2017-10-11T09:48:11.985Z,150
2017-10-11T09:49:22.072Z,160
2017-10-11T09:50:32.508Z,175
2017-10-11T09:51:43.128Z,180
2017-10-11T09:52:53.542Z,185
2017-10-11T09:54:03.967Z,190
2017-10-11T09:55:14.376Z,190
2017-10-11T09:56:24.122Z,195
2017-10-11T09:57:34.541Z,195
2017-10-11T09:58:44.626Z,200
2017-10-11T09:59:55.046Z,205
2017-10-11T10:01:05.511Z,205
2017-10-11T10:02:15.592Z,205
2017-10-11T10:03:26.010Z,210
2017-10-11T10:04:36.416Z,215
2017-10-11T10:05:46.832Z,215
2017-10-11T10:06:57.319Z,220
2017-10-11T10:08:07.085Z,225
2017-10-11T10:09:17.509Z,225
2017-10-11T10:10:27.938Z,215
2017-10-11T10:11:38.361Z,235
2017-10-11T10:12:48.825Z,205
2017-10-11T10:13:59.247Z,200
2017-10-11T10:15:09.324Z,195
2017-10-11T10:16:19.749Z,200
2017-10-11T10:17:30.147Z,195
2017-10-11T10:18:40.612Z,200
2017-10-11T10:19:51.733Z,200
2017-10-11T10:21:02.141Z,210
2017-10-11T10:22:12.540Z,210
2017-10-11T10:23:22.975Z,200
2017-10-11T10:24:35.180Z,205
2017-10-11T10:25:45.623Z,210
2017-10-11T10:26:55.710Z,205
2017-10-11T10:28:06.142Z,210
2017-10-11T10:29:16.575Z,205
2017-10-11T10:30:26.710Z,205
2017-10-11T10:31:37.126Z,205
2017-10-11T10:32:47.233Z,195
2017-10-11T10:33:57.643Z,200
2017-10-11T10:35:08.079Z,190
2017-10-11T10:36:18.501Z,185
2017-10-11T10:37:28.913Z,185
2017-10-11T10:38:39.345Z,185
2017-10-11T10:39:49.759Z,190
2017-10-11T10:41:00.168Z,185
2017-10-11T10:42:10.643Z,185
2017-10-11T10:43:21.089Z,185
2017-10-11T10:44:31.548Z,190
2017-10-11T10:45:41.971Z,190
2017-10-11T10:46:52.368Z,190
2017-10-11T10:48:02.808Z,185
2017-10-11T10:49:13.228Z,175
2017-10-11T10:50:23.347Z,165
2017-10-11T10:51:33.094Z,155
2017-10-11T10:52:43.502Z,150
2017-10-11T10:53:53.982Z,150
2017-10-11T10:55:04.100Z,150
2017-10-11T10:56:14.535Z,150
2017-10-11T10:57:24.957Z,160
2017-10-11T10:58:35.359Z,150
2017-10-11T10:59:45.824Z,150
2017-10-11T11:00:56.281Z,155
2017-10-11T11:02:06.722Z,155
2017-10-11T11:03:17.342Z,165
2017-10-11T11:04:27.798Z,175
2017-10-11T11:05:38.322Z,185
2017-10-11T11:06:48.448Z,230
2017-10-11T11:07:58.598Z,270
2017-10-11T11:09:08.729Z,295
2017-10-11T11:10:19.201Z,300
2017-10-11T11:11:29.681Z,250
2017-10-11T11:12:40.147Z,205
2017-10-11T11:13:50.580Z,200
2017-10-11T11:15:01.038Z,215
2017-10-11T11:16:11.504Z,210
2017-10-11T11:17:21.951Z,210
2017-10-11T11:18:32.406Z,215
2017-10-11T11:19:42.861Z,205
2017-10-11T11:20:52.939Z,200
2017-10-11T11:22:03.048Z,190
2017-10-11T11:23:13.188Z,180
2017-10-11T11:24:23.609Z,195
2017-10-11T11:25:34.025Z,170
2017-10-11T11:26:44.460Z,170
2017-10-11T11:27:54.236Z,170
2017-10-11T11:29:04.737Z,170
2017-10-11T11:30:15.153Z,170
2017-10-11T11:31:25.590Z,160
2017-10-11T11:32:35.365Z,150
2017-10-11T11:33:45.809Z,140
2017-10-11T11:34:56.303Z,135
2017-10-11T11:36:06.415Z,135
2017-10-11T11:37:16.858Z,265
2017-10-11T11:38:27.271Z,260
2017-10-11T11:39:37.719Z,250
2017-10-11T11:40:48.148Z,245
2017-10-11T11:41:58.603Z,250
2017-10-11T11:43:08.705Z,250
2017-10-11T11:44:19.122Z,255
2017-10-11T11:45:29.557Z,250
2017-10-11T11:46:40.052Z,250
2017-10-11T11:47:50.130Z,245
2017-10-11T11:48:59.893Z,250
2017-10-11T11:50:10.326Z,245
2017-10-11T11:51:20.647Z,245
2017-10-11T11:52:31.196Z,245
2017-10-11T11:53:41.702Z,240
2017-10-11T11:54:52.338Z,240
2017-10-11T11:56:02.459Z,240
2017-10-11T11:57:12.892Z,240
2017-10-11T11:58:23.378Z,240
2017-10-11T11:59:33.160Z,245
2017-10-11T12:00:43.574Z,240
2017-10-11T12:01:54.016Z,240
2017-10-11T12:03:04.143Z,190
2017-10-11T12:04:14.615Z,240
2017-10-11T12:05:25.036Z,245
2017-10-11T12:06:35.469Z,250
2017-10-11T12:07:45.882Z,230
2017-10-11T12:08:56.295Z,250
2017-10-11T12:10:06.775Z,245
2017-10-11T12:11:16.871Z,245
2017-10-11T12:12:27.273Z,160
2017-10-11T12:13:37.357Z,120
2017-10-11T12:14:47.784Z,135
2017-10-11T12:15:58.255Z,125
2017-10-11T12:17:08.709Z,125
2017-10-11T12:18:18.805Z,240
2017-10-11T12:19:29.222Z,220
2017-10-11T12:20:39.650Z,255
2017-10-11T12:21:50.091Z,240
2017-10-11T12:23:00.820Z,245
2017-10-11T12:24:11.271Z,160
2017-10-11T12:25:21.721Z,160
2017-10-11T12:26:32.159Z,190
2017-10-11T12:27:42.623Z,210
2017-10-11T12:28:53.063Z,205
2017-10-11T12:30:03.490Z,220
2017-10-11T12:31:13.953Z,180
2017-10-11T12:32:24.374Z,215
2017-10-11T12:33:34.535Z,220
2017-10-11T12:34:44.968Z,220
2017-10-11T12:35:55.411Z,220
2017-10-11T12:37:05.504Z,140
2017-10-11T12:38:15.648Z,225
2017-10-11T12:39:26.095Z,225
2017-10-11T12:40:36.203Z,215
2017-10-11T12:41:46.632Z,220
2017-10-11T12:42:57.076Z,225
2017-10-11T12:44:07.793Z,230
2017-10-11T12:45:18.277Z,230
2017-10-11T12:46:28.369Z,230
2017-10-11T12:47:38.802Z,220
2017-10-11T12:48:49.227Z,220
2017-10-11T12:49:59.324Z,220
2017-10-11T12:51:09.777Z,210
2017-10-11T12:52:20.208Z,200
2017-10-11T12:53:30.936Z,195
2017-10-11T12:54:41.026Z,210
2017-10-11T12:55:51.440Z,200
2017-10-11T12:57:01.636Z,195
2017-10-11T12:58:12.047Z,195
2017-10-11T12:59:22.136Z,200
2017-10-11T13:00:32.546Z,200
2017-10-11T13:01:42.973Z,195
2017-10-11T13:02:53.124Z,190
2017-10-11T13:04:03.593Z,190
2017-10-11T13:05:13.688Z,200
2017-10-11T13:06:24.107Z,200
2017-10-11T13:07:34.517Z,200
2017-10-11T13:08:44.960Z,190
2017-10-11T13:09:55.401Z,195
2017-10-11T13:11:05.828Z,195
2017-10-11T13:12:16.247Z,200
2017-10-11T13:13:26.675Z,200
2017-10-11T13:14:37.169Z,200
2017-10-11T13:15:47.600Z,200
2017-10-11T13:16:58.042Z,195
2017-10-11T13:18:08.489Z,190
2017-10-11T13:19:18.584Z,185
2017-10-11T13:20:29.078Z,185
2017-10-11T13:21:39.507Z,180
2017-10-11T13:22:49.947Z,175
2017-10-11T13:24:00.363Z,170
2017-10-11T13:25:10.455Z,165
2017-10-11T13:26:20.680Z,165
2017-10-11T13:27:31.118Z,165
2017-10-11T13:28:41.224Z,130
2017-10-11T13:29:51.686Z,160
2017-10-11T13:31:02.150Z,160
2017-10-11T13:32:12.637Z,150
2017-10-11T13:33:23.073Z,155
2017-10-11T13:34:33.170Z,165
2017-10-11T13:35:43.595Z,165
2017-10-11T13:36:54.026Z,120
2017-10-11T13:38:04.520Z,110
2017-10-11T13:39:14.933Z,115
2017-10-11T13:40:25.050Z,105
2017-10-11T13:41:35.138Z,105
2017-10-11T13:42:45.567Z,155
2017-10-11T13:43:56.042Z,145
2017-10-11T13:45:06.490Z,145
2017-10-11T13:46:16.926Z,155
2017-10-11T13:47:27.044Z,170
2017-10-11T13:48:37.126Z,165
2017-10-11T13:49:47.642Z,150
2017-10-11T13:50:58.955Z,110
2017-10-11T13:52:09.408Z,110
2017-10-11T13:53:19.493Z,130
2017-10-11T13:54:29.954Z,130
2017-10-11T13:55:40.401Z,130
2017-10-11T13:56:50.843Z,130
2017-10-11T13:58:01.266Z,130
2017-10-11T13:59:11.352Z,130
2017-10-11T14:00:21.791Z,130
2017-10-11T14:01:32.287Z,115
2017-10-11T14:02:42.724Z,135
2017-10-11T14:03:52.819Z,120
2017-10-11T14:05:02.609Z,130
2017-10-11T14:06:13.051Z,150
2017-10-11T14:07:23.484Z,125
2017-10-11T14:08:33.910Z,130
2017-10-11T14:09:44.330Z,145
2017-10-11T14:10:54.768Z,150
2017-10-11T14:12:04.879Z,140
2017-10-11T14:13:15.591Z,140
2017-10-11T14:14:25.705Z,135
2017-10-11T14:15:36.136Z,135
2017-10-11T14:16:46.551Z,130
2017-10-11T14:17:56.647Z,125
2017-10-11T14:19:07.110Z,115
2017-10-11T14:20:17.546Z,115
2017-10-11T14:21:27.641Z,105
2017-10-11T14:22:37.767Z,115
2017-10-11T14:23:48.196Z,95
2017-10-11T14:24:58.326Z,95
2017-10-11T14:26:08.755Z,85
2017-10-11T14:27:19.172Z,80
2017-10-11T14:28:29.604Z,85
2017-10-11T14:29:40.020Z,75
2017-10-11T14:30:50.446Z,70
2017-10-11T14:32:00.542Z,70
2017-10-11T14:33:10.984Z,70
2017-10-11T14:34:21.382Z,70
2017-10-11T14:35:31.791Z,65
2017-10-11T14:36:41.921Z,65
2017-10-11T14:37:52.357Z,65
2017-10-11T14:39:02.769Z,60
2017-10-11T14:40:12.851Z,55
2017-10-11T14:41:22.290Z,55
2017-10-11T14:42:32.717Z,50
2017-10-11T14:43:43.141Z,45
2017-10-11T14:44:53.579Z,45
2017-10-11T14:46:03.685Z,45
2017-10-11T14:47:14.104Z,40
2017-10-11T14:48:24.553Z,40
2017-10-11T14:49:34.985Z,40
2017-10-11T14:50:45.394Z,40
2017-10-11T14:51:55.839Z,40
2017-10-11T14:53:05.948Z,40
2017-10-11T14:54:16.079Z,40
2017-10-11T14:55:26.167Z,45
2017-10-11T14:56:35.929Z,45
2017-10-11T14:57:46.364Z,45
2017-10-11T14:58:56.797Z,45
2017-10-11T15:00:06.947Z,40
2017-10-11T15:01:17.394Z,40
2017-10-11T15:02:27.812Z,40
2017-10-11T15:03:37.884Z,40
2017-10-11T15:04:48.307Z,40
2017-10-11T15:05:58.447Z,40
2017-10-11T15:07:08.862Z,40
2017-10-11T15:08:19.316Z,35
2017-10-11T15:09:29.747Z,35
2017-10-11T15:10:40.177Z,35
2017-10-11T15:11:50.653Z,35
2017-10-11T15:13:01.119Z,35
2017-10-11T15:14:11.215Z,35
2017-10-11T15:15:21.630Z,35
2017-10-11T15:16:32.052Z,35
2017-10-11T15:17:42.527Z,35
2017-10-11T15:18:52.950Z,30
2017-10-11T15:20:03.392Z,30
2017-10-11T15:21:13.470Z,30
2017-10-11T15:22:23.869Z,25
2017-10-11T15:23:34.014Z,25
2017-10-11T15:24:44.093Z,25
2017-10-11T15:25:54.533Z,25
2017-10-11T15:27:04.597Z,25
2017-10-11T15:28:15.027Z,25
2017-10-11T15:29:24.827Z,25
2017-10-11T15:30:34.574Z,25
2017-10-11T15:31:44.978Z,25
2017-10-11T15:32:55.409Z,25
2017-10-11T15:34:05.845Z,30
2017-10-11T15:35:16.312Z,30
2017-10-11T15:36:26.412Z,30
2017-10-11T15:37:36.849Z,25
2017-10-11T15:38:46.961Z,25
2017-10-11T15:39:57.383Z,25
2017-10-11T15:41:07.866Z,25
2017-10-11T15:42:18.293Z,20
2017-10-11T15:43:28.831Z,20
2017-10-11T15:44:39.280Z,20
2017-10-11T15:45:49.390Z,15
2017-10-11T15:46:59.853Z,15
2017-10-11T15:48:10.273Z,15
2017-10-11T15:49:20.055Z,15
2017-10-11T15:50:30.476Z,15
2017-10-11T15:51:40.888Z,15
2017-10-11T15:52:51.328Z,10
2017-10-11T15:54:01.412Z,10
2017-10-11T15:55:11.839Z,10
2017-10-11T15:56:21.924Z,10
2017-10-11T15:57:32.016Z,10
2017-10-11T15:58:42.174Z,10
2017-10-11T15:59:52.590Z,10
2017-10-11T16:01:03.029Z,5
2017-10-11T16:02:13.484Z,5
2017-10-11T16:03:23.906Z,5
2017-10-11T16:04:34.397Z,5
2017-10-11T16:05:44.854Z,5
2017-10-11T16:06:55.284Z,5
2017-10-11T16:08:05.719Z,5
2017-10-11T16:09:15.486Z,5
2017-10-11T16:10:25.980Z,5
2017-10-11T16:11:35.728Z,0
2017-10-11T16:12:46.132Z,0
2017-10-11T16:13:56.580Z,0
2017-10-11T16:15:07.016Z,0
2017-10-11T16:16:17.475Z,0
2017-10-11T16:17:27.898Z,0
2017-10-11T16:18:38.330Z,0
2017-10-11T16:19:48.747Z,0
2017-10-11T16:20:59.181Z,0
2017-10-11T16:22:09.320Z,0
2017-10-11T16:23:19.739Z,0
2017-10-11T16:24:30.156Z,0
2017-10-11T16:25:40.593Z,0
2017-10-11T16:26:50.358Z,0
2017-10-11T16:28:00.831Z,0
2017-10-11T16:29:10.580Z,0
2017-10-11T16:30:20.682Z,0
2017-10-11T16:31:31.108Z,0
2017-10-11T16:32:41.536Z,0
2017-10-11T16:33:52.029Z,0
2017-10-11T16:35:02.127Z,0
2017-10-11T16:36:12.224Z,0
2017-10-11T16:37:22.662Z,0
2017-10-11T16:38:33.074Z,0
2017-10-11T16:39:43.217Z,0
2017-10-11T16:40:53.293Z,0
2017-10-11T16:42:03.370Z,0
2017-10-11T16:43:13.531Z,0
2017-10-11T16:44:23.961Z,0
2017-10-11T16:45:34.435Z,0
2017-10-11T16:46:44.851Z,0
2017-10-11T16:47:54.944Z,0
2017-10-11T16:49:05.400Z,0
2017-10-11T16:50:15.817Z,0
2017-10-11T16:51:25.564Z,0
2017-10-11T16:52:35.999Z,0
2017-10-11T16:53:46.405Z,0
2017-10-11T16:54:56.818Z,0
2017-10-11T16:56:07.280Z,0
2017-10-11T16:57:17.403Z,0
2017-10-11T16:58:27.819Z,0
2017-10-11T16:59:38.241Z,0
2017-10-11T17:00:48.332Z,0
2017-10-11T17:01:58.110Z,0
2017-10-11T17:03:08.956Z,0
2017-10-11T17:04:19.057Z,0
2017-10-11T17:05:29.499Z,0
2017-10-11T17:06:39.592Z,0
2017-10-11T17:07:50.022Z,0
2017-10-11T17:09:00.495Z,0
2017-10-11T17:10:10.933Z,0
2017-10-11T17:11:21.353Z,0
2017-10-11T17:12:31.759Z,0
2017-10-11T17:13:42.194Z,0
2017-10-11T17:14:52.678Z,0
2017-10-11T17:16:02.781Z,0
2017-10-11T17:17:13.204Z,0